sensor_id;sensor_type;location;lat;lon;timestamp;temperature;humidity
56268;DHT22;42175;46.930;9.532;2022-10-16T00:00:38;22.60;56.60
56268;DHT22;42175;46.930;9.532;2022-10-16T00:03:05;22.60;56.70
56268;DHT22;42175;46.930;9.532;2022-10-16T00:05:31;22.60;56.80
56268;DHT22;42175;46.930;9.532;2022-10-16T00:07:57;22.60;56.80
56268;DHT22;42175;46.930;9.532;2022-10-16T00:10:23;22.60;56.80
56268;DHT22;42175;46.930;9.532;2022-10-16T00:12:49;22.60;56.80
56268;DHT22;42175;46.930;9.532;2022-10-16T00:15:16;22.60;56.80
56268;DHT22;42175;46.930;9.532;2022-10-16T00:17:41;22.60;56.70
56268;DHT22;42175;46.930;9.532;2022-10-16T00:20:07;22.60;56.80
56268;DHT22;42175;46.930;9.532;2022-10-16T00:22:33;22.60;56.90
56268;DHT22;42175;46.930;9.532;2022-10-16T00:24:59;22.60;56.90
56268;DHT22;42175;46.930;9.532;2022-10-16T00:27:25;22.60;57.00
56268;DHT22;42175;46.930;9.532;2022-10-16T00:29:52;22.60;56.90
56268;DHT22;42175;46.930;9.532;2022-10-16T00:32:19;22.60;56.90
56268;DHT22;42175;46.930;9.532;2022-10-16T00:34:46;22.60;57.00
56268;DHT22;42175;46.930;9.532;2022-10-16T00:37:12;22.60;57.00
56268;DHT22;42175;46.930;9.532;2022-10-16T00:39:38;22.60;57.00
56268;DHT22;42175;46.930;9.532;2022-10-16T00:42:04;22.50;57.00
56268;DHT22;42175;46.930;9.532;2022-10-16T00:44:55;22.60;57.10
56268;DHT22;42175;46.930;9.532;2022-10-16T00:47:48;22.60;57.10
56268;DHT22;42175;46.930;9.532;2022-10-16T00:50:30;22.60;57.00
56268;DHT22;42175;46.930;9.532;2022-10-16T00:52:58;22.60;57.10
56268;DHT22;42175;46.930;9.532;2022-10-16T00:55:25;22.50;57.10
56268;DHT22;42175;46.930;9.532;2022-10-16T00:57:51;22.50;57.10
56268;DHT22;42175;46.930;9.532;2022-10-16T01:00:21;22.60;57.20
56268;DHT22;42175;46.930;9.532;2022-10-16T01:02:57;22.60;57.20
56268;DHT22;42175;46.930;9.532;2022-10-16T01:05:39;22.50;57.10
56268;DHT22;42175;46.930;9.532;2022-10-16T01:08:12;22.60;57.20
56268;DHT22;42175;46.930;9.532;2022-10-16T01:13:22;22.50;57.10
56268;DHT22;42175;46.930;9.532;2022-10-16T01:16:01;22.50;57.20
56268;DHT22;42175;46.930;9.532;2022-10-16T01:18:49;22.50;57.20
56268;DHT22;42175;46.930;9.532;2022-10-16T01:21:39;22.50;57.20
56268;DHT22;42175;46.930;9.532;2022-10-16T01:32:15;22.50;57.20
56268;DHT22;42175;46.930;9.532;2022-10-16T01:34:54;22.50;57.20
56268;DHT22;42175;46.930;9.532;2022-10-16T01:37:40;22.50;57.20
56268;DHT22;42175;46.930;9.532;2022-10-16T01:40:12;22.50;57.20
56268;DHT22;42175;46.930;9.532;2022-10-16T01:42:42;22.50;57.20
56268;DHT22;42175;46.930;9.532;2022-10-16T01:45:13;22.50;57.20
56268;DHT22;42175;46.930;9.532;2022-10-16T01:47:41;22.50;57.30
56268;DHT22;42175;46.930;9.532;2022-10-16T01:50:08;22.50;57.20
56268;DHT22;42175;46.930;9.532;2022-10-16T01:52:40;22.50;57.30
56268;DHT22;42175;46.930;9.532;2022-10-16T01:55:08;22.50;57.30
56268;DHT22;42175;46.930;9.532;2022-10-16T01:57:39;22.50;57.30
56268;DHT22;42175;46.930;9.532;2022-10-16T02:00:12;22.50;57.30
56268;DHT22;42175;46.930;9.532;2022-10-16T02:02:44;22.50;57.40
56268;DHT22;42175;46.930;9.532;2022-10-16T02:05:26;22.50;57.40
56268;DHT22;42175;46.930;9.532;2022-10-16T02:07:53;22.50;57.40
56268;DHT22;42175;46.930;9.532;2022-10-16T02:10:20;22.50;57.40
56268;DHT22;42175;46.930;9.532;2022-10-16T02:12:50;22.50;57.40
56268;DHT22;42175;46.930;9.532;2022-10-16T02:15:19;22.40;57.30
56268;DHT22;42175;46.930;9.532;2022-10-16T02:17:45;22.50;57.40
56268;DHT22;42175;46.930;9.532;2022-10-16T02:20:11;22.50;57.40
56268;DHT22;42175;46.930;9.532;2022-10-16T02:22:45;22.50;57.40
56268;DHT22;42175;46.930;9.532;2022-10-16T02:28:17;22.50;57.40
56268;DHT22;42175;46.930;9.532;2022-10-16T02:30:52;22.50;57.40
56268;DHT22;42175;46.930;9.532;2022-10-16T02:33:22;22.50;57.40
56268;DHT22;42175;46.930;9.532;2022-10-16T02:35:49;22.50;57.20
56268;DHT22;42175;46.930;9.532;2022-10-16T02:38:17;22.50;57.20
56268;DHT22;42175;46.930;9.532;2022-10-16T02:40:44;22.50;57.20
56268;DHT22;42175;46.930;9.532;2022-10-16T02:43:10;22.40;57.20
56268;DHT22;42175;46.930;9.532;2022-10-16T02:45:36;22.50;57.30
56268;DHT22;42175;46.930;9.532;2022-10-16T02:48:02;22.40;57.20
56268;DHT22;42175;46.930;9.532;2022-10-16T02:50:28;22.40;57.20
56268;DHT22;42175;46.930;9.532;2022-10-16T02:52:54;22.40;57.10
56268;DHT22;42175;46.930;9.532;2022-10-16T02:55:20;22.40;57.10
56268;DHT22;42175;46.930;9.532;2022-10-16T02:57:45;22.50;57.20
56268;DHT22;42175;46.930;9.532;2022-10-16T03:00:14;22.40;57.00
56268;DHT22;42175;46.930;9.532;2022-10-16T03:02:40;22.40;57.20
56268;DHT22;42175;46.930;9.532;2022-10-16T03:05:06;22.40;57.10
56268;DHT22;42175;46.930;9.532;2022-10-16T03:07:32;22.40;57.10
56268;DHT22;42175;46.930;9.532;2022-10-16T03:09:58;22.50;57.20
56268;DHT22;42175;46.930;9.532;2022-10-16T03:12:27;22.40;57.00
56268;DHT22;42175;46.930;9.532;2022-10-16T03:14:52;22.40;57.00
56268;DHT22;42175;46.930;9.532;2022-10-16T03:17:18;22.40;57.10
56268;DHT22;42175;46.930;9.532;2022-10-16T03:19:44;22.40;56.90
56268;DHT22;42175;46.930;9.532;2022-10-16T03:22:10;22.40;56.80
56268;DHT22;42175;46.930;9.532;2022-10-16T03:24:35;22.40;56.90
56268;DHT22;42175;46.930;9.532;2022-10-16T03:27:01;22.40;56.80
56268;DHT22;42175;46.930;9.532;2022-10-16T03:29:27;22.40;56.90
56268;DHT22;42175;46.930;9.532;2022-10-16T03:31:55;22.40;57.00
56268;DHT22;42175;46.930;9.532;2022-10-16T03:34:21;22.40;57.20
56268;DHT22;42175;46.930;9.532;2022-10-16T03:36:47;22.40;57.00
56268;DHT22;42175;46.930;9.532;2022-10-16T03:39:13;22.40;57.00
56268;DHT22;42175;46.930;9.532;2022-10-16T03:41:39;22.40;57.00
56268;DHT22;42175;46.930;9.532;2022-10-16T03:44:04;22.40;57.00
56268;DHT22;42175;46.930;9.532;2022-10-16T03:46:31;22.40;57.00
56268;DHT22;42175;46.930;9.532;2022-10-16T03:48:57;22.40;56.90
56268;DHT22;42175;46.930;9.532;2022-10-16T03:51:22;22.40;56.90
56268;DHT22;42175;46.930;9.532;2022-10-16T03:53:48;22.40;56.80
56268;DHT22;42175;46.930;9.532;2022-10-16T03:56:14;22.40;56.80
56268;DHT22;42175;46.930;9.532;2022-10-16T03:58:40;22.40;56.90
56268;DHT22;42175;46.930;9.532;2022-10-16T04:01:05;22.40;57.00
56268;DHT22;42175;46.930;9.532;2022-10-16T04:03:31;22.40;57.00
56268;DHT22;42175;46.930;9.532;2022-10-16T04:05:57;22.40;57.00
56268;DHT22;42175;46.930;9.532;2022-10-16T04:08:23;22.40;57.00
56268;DHT22;42175;46.930;9.532;2022-10-16T04:10:49;22.40;57.00
56268;DHT22;42175;46.930;9.532;2022-10-16T04:13:15;22.40;56.90
56268;DHT22;42175;46.930;9.532;2022-10-16T04:15:42;22.40;56.90
56268;DHT22;42175;46.930;9.532;2022-10-16T04:18:07;22.40;56.90
56268;DHT22;42175;46.930;9.532;2022-10-16T04:20:34;22.40;56.90
56268;DHT22;42175;46.930;9.532;2022-10-16T04:22:59;22.40;56.90
56268;DHT22;42175;46.930;9.532;2022-10-16T04:25:25;22.40;57.40
56268;DHT22;42175;46.930;9.532;2022-10-16T04:27:53;22.40;56.70
56268;DHT22;42175;46.930;9.532;2022-10-16T04:30:19;22.40;56.70
56268;DHT22;42175;46.930;9.532;2022-10-16T04:32:48;22.40;56.70
56268;DHT22;42175;46.930;9.532;2022-10-16T04:35:15;22.40;56.80
56268;DHT22;42175;46.930;9.532;2022-10-16T04:37:41;22.40;56.70
56268;DHT22;42175;46.930;9.532;2022-10-16T04:40:07;22.40;56.70
56268;DHT22;42175;46.930;9.532;2022-10-16T04:42:33;22.40;56.80
56268;DHT22;42175;46.930;9.532;2022-10-16T04:44:59;22.40;56.70
56268;DHT22;42175;46.930;9.532;2022-10-16T04:47:24;22.40;56.70
56268;DHT22;42175;46.930;9.532;2022-10-16T04:49:50;22.40;56.70
56268;DHT22;42175;46.930;9.532;2022-10-16T04:52:16;22.40;56.60
56268;DHT22;42175;46.930;9.532;2022-10-16T04:54:42;22.30;56.30
56268;DHT22;42175;46.930;9.532;2022-10-16T04:57:11;22.30;56.20
56268;DHT22;42175;46.930;9.532;2022-10-16T04:59:36;22.30;56.40
56268;DHT22;42175;46.930;9.532;2022-10-16T05:02:02;22.30;56.30
56268;DHT22;42175;46.930;9.532;2022-10-16T05:04:28;22.40;56.40
56268;DHT22;42175;46.930;9.532;2022-10-16T05:06:54;22.30;56.40
56268;DHT22;42175;46.930;9.532;2022-10-16T05:09:20;22.40;56.50
56268;DHT22;42175;46.930;9.532;2022-10-16T05:11:46;22.40;56.60
56268;DHT22;42175;46.930;9.532;2022-10-16T05:14:11;22.30;56.30
56268;DHT22;42175;46.930;9.532;2022-10-16T05:16:37;22.30;56.40
56268;DHT22;42175;46.930;9.532;2022-10-16T05:19:03;22.30;56.30
56268;DHT22;42175;46.930;9.532;2022-10-16T05:21:29;22.30;56.30
56268;DHT22;42175;46.930;9.532;2022-10-16T05:23:54;22.40;56.40
56268;DHT22;42175;46.930;9.532;2022-10-16T05:26:21;22.30;56.40
56268;DHT22;42175;46.930;9.532;2022-10-16T05:28:47;22.30;56.40
56268;DHT22;42175;46.930;9.532;2022-10-16T05:31:14;22.30;56.40
56268;DHT22;42175;46.930;9.532;2022-10-16T05:33:40;22.40;56.50
56268;DHT22;42175;46.930;9.532;2022-10-16T05:36:07;22.40;56.50
56268;DHT22;42175;46.930;9.532;2022-10-16T05:38:35;22.40;56.50
56268;DHT22;42175;46.930;9.532;2022-10-16T05:41:02;22.40;56.50
56268;DHT22;42175;46.930;9.532;2022-10-16T05:43:29;22.40;56.60
56268;DHT22;42175;46.930;9.532;2022-10-16T05:46:00;22.40;56.50
56268;DHT22;42175;46.930;9.532;2022-10-16T05:48:27;22.40;56.50
56268;DHT22;42175;46.930;9.532;2022-10-16T05:51:02;22.40;56.50
56268;DHT22;42175;46.930;9.532;2022-10-16T05:53:29;22.30;56.50
56268;DHT22;42175;46.930;9.532;2022-10-16T05:55:56;22.40;56.60
56268;DHT22;42175;46.930;9.532;2022-10-16T05:58:23;22.40;56.50
56268;DHT22;42175;46.930;9.532;2022-10-16T06:00:56;22.30;56.30
56268;DHT22;42175;46.930;9.532;2022-10-16T06:03:23;22.30;56.20
56268;DHT22;42175;46.930;9.532;2022-10-16T06:05:49;22.30;56.40
56268;DHT22;42175;46.930;9.532;2022-10-16T06:08:15;22.40;56.40
56268;DHT22;42175;46.930;9.532;2022-10-16T06:10:41;22.40;56.30
56268;DHT22;42175;46.930;9.532;2022-10-16T06:13:07;22.40;56.20
56268;DHT22;42175;46.930;9.532;2022-10-16T06:15:33;22.50;56.40
56268;DHT22;42175;46.930;9.532;2022-10-16T06:17:58;22.50;56.40
56268;DHT22;42175;46.930;9.532;2022-10-16T06:20:24;22.40;56.50
56268;DHT22;42175;46.930;9.532;2022-10-16T06:22:50;22.50;56.60
56268;DHT22;42175;46.930;9.532;2022-10-16T06:25:15;22.50;56.90
56268;DHT22;42175;46.930;9.532;2022-10-16T06:27:41;22.40;57.30
56268;DHT22;42175;46.930;9.532;2022-10-16T06:30:07;22.50;57.10
56268;DHT22;42175;46.930;9.532;2022-10-16T06:32:33;22.50;57.60
56268;DHT22;42175;46.930;9.532;2022-10-16T06:34:59;22.50;58.40
56268;DHT22;42175;46.930;9.532;2022-10-16T06:37:25;22.50;58.60
56268;DHT22;42175;46.930;9.532;2022-10-16T06:39:52;22.50;58.30
56268;DHT22;42175;46.930;9.532;2022-10-16T06:42:18;22.50;58.40
56268;DHT22;42175;46.930;9.532;2022-10-16T06:44:44;22.50;58.40
56268;DHT22;42175;46.930;9.532;2022-10-16T06:47:10;22.50;58.40
56268;DHT22;42175;46.930;9.532;2022-10-16T06:49:36;22.50;58.70
56268;DHT22;42175;46.930;9.532;2022-10-16T06:52:01;22.50;58.80
56268;DHT22;42175;46.930;9.532;2022-10-16T06:54:27;22.50;59.00
56268;DHT22;42175;46.930;9.532;2022-10-16T06:56:53;22.40;58.70
56268;DHT22;42175;46.930;9.532;2022-10-16T06:59:20;22.50;58.80
56268;DHT22;42175;46.930;9.532;2022-10-16T07:01:46;22.50;58.90
56268;DHT22;42175;46.930;9.532;2022-10-16T07:04:12;22.40;58.90
56268;DHT22;42175;46.930;9.532;2022-10-16T07:06:38;22.40;58.70
56268;DHT22;42175;46.930;9.532;2022-10-16T07:09:08;22.40;58.90
56268;DHT22;42175;46.930;9.532;2022-10-16T07:11:36;22.40;58.70
56268;DHT22;42175;46.930;9.532;2022-10-16T07:14:02;22.40;58.60
56268;DHT22;42175;46.930;9.532;2022-10-16T07:16:30;22.40;58.50
56268;DHT22;42175;46.930;9.532;2022-10-16T07:19:01;22.40;58.40
56268;DHT22;42175;46.930;9.532;2022-10-16T07:21:33;22.50;58.40
56268;DHT22;42175;46.930;9.532;2022-10-16T07:24:07;22.50;58.40
56268;DHT22;42175;46.930;9.532;2022-10-16T07:26:36;22.50;58.40
56268;DHT22;42175;46.930;9.532;2022-10-16T07:29:05;22.50;58.40
56268;DHT22;42175;46.930;9.532;2022-10-16T07:31:32;22.50;58.40
56268;DHT22;42175;46.930;9.532;2022-10-16T07:33:59;22.50;58.20
56268;DHT22;42175;46.930;9.532;2022-10-16T07:36:25;22.50;58.30
56268;DHT22;42175;46.930;9.532;2022-10-16T07:38:51;22.50;58.30
56268;DHT22;42175;46.930;9.532;2022-10-16T07:41:19;22.50;58.30
56268;DHT22;42175;46.930;9.532;2022-10-16T07:43:50;22.50;58.20
56268;DHT22;42175;46.930;9.532;2022-10-16T07:46:17;22.50;58.20
56268;DHT22;42175;46.930;9.532;2022-10-16T07:48:43;22.50;58.10
56268;DHT22;42175;46.930;9.532;2022-10-16T07:51:14;22.50;58.10
56268;DHT22;42175;46.930;9.532;2022-10-16T07:53:40;22.40;58.10
56268;DHT22;42175;46.930;9.532;2022-10-16T07:56:07;22.40;58.00
56268;DHT22;42175;46.930;9.532;2022-10-16T07:58:33;22.40;57.90
56268;DHT22;42175;46.930;9.532;2022-10-16T08:01:04;22.40;57.90
56268;DHT22;42175;46.930;9.532;2022-10-16T08:03:30;22.40;57.80
56268;DHT22;42175;46.930;9.532;2022-10-16T08:06:00;22.40;57.80
56268;DHT22;42175;46.930;9.532;2022-10-16T08:08:27;22.40;57.80
56268;DHT22;42175;46.930;9.532;2022-10-16T08:10:53;22.40;57.70
56268;DHT22;42175;46.930;9.532;2022-10-16T08:13:18;22.50;57.70
56268;DHT22;42175;46.930;9.532;2022-10-16T08:15:45;22.50;57.60
56268;DHT22;42175;46.930;9.532;2022-10-16T08:18:12;22.50;57.50
56268;DHT22;42175;46.930;9.532;2022-10-16T08:20:40;22.50;57.50
56268;DHT22;42175;46.930;9.532;2022-10-16T08:23:07;22.50;57.40
56268;DHT22;42175;46.930;9.532;2022-10-16T08:25:35;22.60;57.50
56268;DHT22;42175;46.930;9.532;2022-10-16T08:28:06;22.60;57.30
56268;DHT22;42175;46.930;9.532;2022-10-16T08:30:33;22.60;57.30
56268;DHT22;42175;46.930;9.532;2022-10-16T08:32:59;22.60;57.30
56268;DHT22;42175;46.930;9.532;2022-10-16T08:35:25;22.60;57.20
56268;DHT22;42175;46.930;9.532;2022-10-16T08:37:50;22.60;57.40
56268;DHT22;42175;46.930;9.532;2022-10-16T08:40:20;22.70;57.40
56268;DHT22;42175;46.930;9.532;2022-10-16T08:45:43;22.70;57.50
56268;DHT22;42175;46.930;9.532;2022-10-16T08:51:04;22.70;57.50
56268;DHT22;42175;46.930;9.532;2022-10-16T08:53:54;22.70;57.50
56268;DHT22;42175;46.930;9.532;2022-10-16T08:56:22;22.70;57.70
56268;DHT22;42175;46.930;9.532;2022-10-16T08:58:48;22.70;57.50
56268;DHT22;42175;46.930;9.532;2022-10-16T09:01:16;22.60;53.10
56268;DHT22;42175;46.930;9.532;2022-10-16T09:15:51;21.30;52.40
56268;DHT22;42175;46.930;9.532;2022-10-16T09:18:28;21.30;52.10
56268;DHT22;42175;46.930;9.532;2022-10-16T09:21:04;21.50;51.80
56268;DHT22;42175;46.930;9.532;2022-10-16T09:23:35;21.70;50.50
56268;DHT22;42175;46.930;9.532;2022-10-16T09:26:01;21.80;50.80
56268;DHT22;42175;46.930;9.532;2022-10-16T09:28:28;21.90;49.70
56268;DHT22;42175;46.930;9.532;2022-10-16T09:30:53;22.00;50.30
56268;DHT22;42175;46.930;9.532;2022-10-16T09:33:23;22.10;50.70
56268;DHT22;42175;46.930;9.532;2022-10-16T09:35:53;22.10;49.50
56268;DHT22;42175;46.930;9.532;2022-10-16T09:38:29;22.10;50.00
56268;DHT22;42175;46.930;9.532;2022-10-16T09:40:57;22.00;49.50
56268;DHT22;42175;46.930;9.532;2022-10-16T09:43:30;22.00;50.40
56268;DHT22;42175;46.930;9.532;2022-10-16T09:46:01;21.80;49.40
56268;DHT22;42175;46.930;9.532;2022-10-16T09:48:39;21.90;50.40
56268;DHT22;42175;46.930;9.532;2022-10-16T09:51:25;22.00;49.30
56268;DHT22;42175;46.930;9.532;2022-10-16T09:53:59;22.20;50.20
56268;DHT22;42175;46.930;9.532;2022-10-16T09:56:35;22.30;49.10
56268;DHT22;42175;46.930;9.532;2022-10-16T09:59:08;22.30;50.00
56268;DHT22;42175;46.930;9.532;2022-10-16T10:01:39;22.30;49.20
56268;DHT22;42175;46.930;9.532;2022-10-16T10:04:06;22.40;49.90
56268;DHT22;42175;46.930;9.532;2022-10-16T10:06:37;22.50;49.70
56268;DHT22;42175;46.930;9.532;2022-10-16T10:09:13;22.50;49.80
56268;DHT22;42175;46.930;9.532;2022-10-16T10:11:45;22.30;49.10
56268;DHT22;42175;46.930;9.532;2022-10-16T10:22:45;22.30;50.20
56268;DHT22;42175;46.930;9.532;2022-10-16T10:33:33;22.50;50.60
56268;DHT22;42175;46.930;9.532;2022-10-16T10:38:52;22.30;49.60
56268;DHT22;42175;46.930;9.532;2022-10-16T10:52:42;22.40;49.70
56268;DHT22;42175;46.930;9.532;2022-10-16T10:55:43;22.30;50.40
56268;DHT22;42175;46.930;9.532;2022-10-16T11:06:57;22.40;50.30
56268;DHT22;42175;46.930;9.532;2022-10-16T11:09:28;22.40;50.80
56268;DHT22;42175;46.930;9.532;2022-10-16T11:12:26;22.50;51.00
56268;DHT22;42175;46.930;9.532;2022-10-16T11:14:58;22.60;50.80
56268;DHT22;42175;46.930;9.532;2022-10-16T11:17:39;22.60;50.60
56268;DHT22;42175;46.930;9.532;2022-10-16T11:22:52;22.70;50.40
56268;DHT22;42175;46.930;9.532;2022-10-16T11:25:28;22.70;49.50
56268;DHT22;42175;46.930;9.532;2022-10-16T11:28:27;22.70;49.40
56268;DHT22;42175;46.930;9.532;2022-10-16T11:33:39;22.70;49.20
56268;DHT22;42175;46.930;9.532;2022-10-16T11:39:24;22.80;49.30
56268;DHT22;42175;46.930;9.532;2022-10-16T11:41:59;22.80;48.70
56268;DHT22;42175;46.930;9.532;2022-10-16T11:44:44;22.80;48.70
56268;DHT22;42175;46.930;9.532;2022-10-16T11:53:09;22.90;49.30
56268;DHT22;42175;46.930;9.532;2022-10-16T11:55:38;22.90;49.60
56268;DHT22;42175;46.930;9.532;2022-10-16T12:09:40;22.90;49.70
56268;DHT22;42175;46.930;9.532;2022-10-16T12:12:25;22.90;50.30
56268;DHT22;42175;46.930;9.532;2022-10-16T12:17:44;23.00;50.20
56268;DHT22;42175;46.930;9.532;2022-10-16T12:25:34;23.10;50.20
56268;DHT22;42175;46.930;9.532;2022-10-16T12:28:20;23.10;50.30
56268;DHT22;42175;46.930;9.532;2022-10-16T12:30:58;23.00;51.50
56268;DHT22;42175;46.930;9.532;2022-10-16T12:33:26;23.10;51.20
56268;DHT22;42175;46.930;9.532;2022-10-16T12:35:53;23.10;51.80
56268;DHT22;42175;46.930;9.532;2022-10-16T12:38:48;23.10;52.40
56268;DHT22;42175;46.930;9.532;2022-10-16T12:43:51;23.10;53.50
56268;DHT22;42175;46.930;9.532;2022-10-16T12:48:43;23.10;53.20
56268;DHT22;42175;46.930;9.532;2022-10-16T13:02:36;23.10;53.20
56268;DHT22;42175;46.930;9.532;2022-10-16T13:10:30;23.10;53.70
56268;DHT22;42175;46.930;9.532;2022-10-16T13:21:19;23.10;53.10
56268;DHT22;42175;46.930;9.532;2022-10-16T13:26:48;23.10;53.60
56268;DHT22;42175;46.930;9.532;2022-10-16T13:29:16;23.00;53.70
56268;DHT22;42175;46.930;9.532;2022-10-16T13:31:43;23.00;53.70
56268;DHT22;42175;46.930;9.532;2022-10-16T13:34:17;23.00;53.70
56268;DHT22;42175;46.930;9.532;2022-10-16T13:36:50;23.10;54.00
56268;DHT22;42175;46.930;9.532;2022-10-16T13:39:25;23.10;53.50
56268;DHT22;42175;46.930;9.532;2022-10-16T13:42:24;23.10;53.90
56268;DHT22;42175;46.930;9.532;2022-10-16T13:44:53;23.00;54.10
56268;DHT22;42175;46.930;9.532;2022-10-16T13:47:21;23.10;54.50
56268;DHT22;42175;46.930;9.532;2022-10-16T13:50:03;23.00;54.40
56268;DHT22;42175;46.930;9.532;2022-10-16T13:52:30;23.00;54.90
56268;DHT22;42175;46.930;9.532;2022-10-16T13:54:56;22.90;55.40
56268;DHT22;42175;46.930;9.532;2022-10-16T13:57:23;22.90;55.50
56268;DHT22;42175;46.930;9.532;2022-10-16T13:59:50;22.90;55.40
56268;DHT22;42175;46.930;9.532;2022-10-16T14:04:54;22.80;55.70
56268;DHT22;42175;46.930;9.532;2022-10-16T14:07:25;22.70;55.90
56268;DHT22;42175;46.930;9.532;2022-10-16T14:09:53;22.70;55.80
56268;DHT22;42175;46.930;9.532;2022-10-16T14:12:19;22.70;55.60
56268;DHT22;42175;46.930;9.532;2022-10-16T14:14:53;22.70;55.40
56268;DHT22;42175;46.930;9.532;2022-10-16T14:17:24;22.70;55.50
56268;DHT22;42175;46.930;9.532;2022-10-16T14:19:53;22.60;56.20
56268;DHT22;42175;46.930;9.532;2022-10-16T14:22:33;22.60;55.60
56268;DHT22;42175;46.930;9.532;2022-10-16T14:24:59;22.50;55.60
56268;DHT22;42175;46.930;9.532;2022-10-16T14:27:28;22.50;55.50
56268;DHT22;42175;46.930;9.532;2022-10-16T14:30:18;22.50;55.50
56268;DHT22;42175;46.930;9.532;2022-10-16T14:36:16;22.50;55.80
56268;DHT22;42175;46.930;9.532;2022-10-16T14:41:23;22.50;55.90
56268;DHT22;42175;46.930;9.532;2022-10-16T14:43:54;22.40;55.80
56268;DHT22;42175;46.930;9.532;2022-10-16T14:46:36;22.40;55.80
56268;DHT22;42175;46.930;9.532;2022-10-16T14:51:34;22.30;55.60
56268;DHT22;42175;46.930;9.532;2022-10-16T14:54:00;22.30;55.50
56268;DHT22;42175;46.930;9.532;2022-10-16T14:56:34;22.30;55.50
56268;DHT22;42175;46.930;9.532;2022-10-16T14:59:10;22.30;55.50
56268;DHT22;42175;46.930;9.532;2022-10-16T15:01:39;22.30;55.60
56268;DHT22;42175;46.930;9.532;2022-10-16T15:04:04;22.30;55.70
56268;DHT22;42175;46.930;9.532;2022-10-16T15:06:30;22.30;55.70
56268;DHT22;42175;46.930;9.532;2022-10-16T15:08:56;22.20;55.60
56268;DHT22;42175;46.930;9.532;2022-10-16T15:11:21;22.20;55.40
56268;DHT22;42175;46.930;9.532;2022-10-16T15:13:47;22.20;55.20
56268;DHT22;42175;46.930;9.532;2022-10-16T15:16:15;22.20;54.90
56268;DHT22;42175;46.930;9.532;2022-10-16T15:18:41;22.20;54.70
56268;DHT22;42175;46.930;9.532;2022-10-16T15:21:08;22.20;54.60
56268;DHT22;42175;46.930;9.532;2022-10-16T15:23:34;22.10;54.60
56268;DHT22;42175;46.930;9.532;2022-10-16T15:26:00;22.10;54.70
56268;DHT22;42175;46.930;9.532;2022-10-16T15:28:26;22.10;54.70
56268;DHT22;42175;46.930;9.532;2022-10-16T15:30:54;22.10;54.70
56268;DHT22;42175;46.930;9.532;2022-10-16T15:33:22;22.10;54.70
56268;DHT22;42175;46.930;9.532;2022-10-16T15:35:50;22.10;54.70
56268;DHT22;42175;46.930;9.532;2022-10-16T15:38:18;22.10;54.70
56268;DHT22;42175;46.930;9.532;2022-10-16T15:40:45;22.00;54.50
56268;DHT22;42175;46.930;9.532;2022-10-16T15:43:11;22.00;54.40
56268;DHT22;42175;46.930;9.532;2022-10-16T15:45:37;22.00;54.30
56268;DHT22;42175;46.930;9.532;2022-10-16T15:48:03;22.00;54.20
56268;DHT22;42175;46.930;9.532;2022-10-16T15:50:30;21.90;54.00
56268;DHT22;42175;46.930;9.532;2022-10-16T15:52:57;22.00;53.70
56268;DHT22;42175;46.930;9.532;2022-10-16T15:55:23;22.00;53.60
56268;DHT22;42175;46.930;9.532;2022-10-16T15:57:49;21.90;53.30
56268;DHT22;42175;46.930;9.532;2022-10-16T16:00:18;21.90;53.30
56268;DHT22;42175;46.930;9.532;2022-10-16T16:02:53;21.90;53.40
56268;DHT22;42175;46.930;9.532;2022-10-16T16:05:20;21.90;54.10
56268;DHT22;42175;46.930;9.532;2022-10-16T16:07:46;21.90;53.50
56268;DHT22;42175;46.930;9.532;2022-10-16T16:10:12;21.90;53.60
56268;DHT22;42175;46.930;9.532;2022-10-16T16:12:39;21.90;53.40
56268;DHT22;42175;46.930;9.532;2022-10-16T16:15:06;21.80;53.50
56268;DHT22;42175;46.930;9.532;2022-10-16T16:17:33;21.80;53.80
56268;DHT22;42175;46.930;9.532;2022-10-16T16:19:59;21.80;53.40
56268;DHT22;42175;46.930;9.532;2022-10-16T16:22:26;21.80;53.40
56268;DHT22;42175;46.930;9.532;2022-10-16T16:24:52;21.80;53.20
56268;DHT22;42175;46.930;9.532;2022-10-16T16:27:17;21.80;53.20
56268;DHT22;42175;46.930;9.532;2022-10-16T16:29:45;21.80;52.90
56268;DHT22;42175;46.930;9.532;2022-10-16T16:32:11;21.80;52.70
56268;DHT22;42175;46.930;9.532;2022-10-16T16:34:37;21.80;52.60
56268;DHT22;42175;46.930;9.532;2022-10-16T16:37:02;21.90;52.50
56268;DHT22;42175;46.930;9.532;2022-10-16T16:39:28;22.00;52.40
56268;DHT22;42175;46.930;9.532;2022-10-16T16:41:56;22.00;52.40
56268;DHT22;42175;46.930;9.532;2022-10-16T16:44:24;22.10;52.50
56268;DHT22;42175;46.930;9.532;2022-10-16T16:46:50;22.10;52.40
56268;DHT22;42175;46.930;9.532;2022-10-16T16:49:16;22.10;52.30
56268;DHT22;42175;46.930;9.532;2022-10-16T16:51:41;22.20;52.40
56268;DHT22;42175;46.930;9.532;2022-10-16T16:54:10;22.20;52.50
56268;DHT22;42175;46.930;9.532;2022-10-16T16:56:37;22.20;52.30
56268;DHT22;42175;46.930;9.532;2022-10-16T16:59:03;22.20;52.20
56268;DHT22;42175;46.930;9.532;2022-10-16T17:01:29;22.20;52.30
56268;DHT22;42175;46.930;9.532;2022-10-16T17:03:57;22.20;52.30
56268;DHT22;42175;46.930;9.532;2022-10-16T17:06:27;22.20;52.40
56268;DHT22;42175;46.930;9.532;2022-10-16T17:08:55;22.30;52.40
56268;DHT22;42175;46.930;9.532;2022-10-16T17:11:23;22.20;52.20
56268;DHT22;42175;46.930;9.532;2022-10-16T17:13:50;22.20;52.20
56268;DHT22;42175;46.930;9.532;2022-10-16T17:16:18;22.20;52.10
56268;DHT22;42175;46.930;9.532;2022-10-16T17:18:44;22.20;52.10
56268;DHT22;42175;46.930;9.532;2022-10-16T17:21:10;22.30;52.20
56268;DHT22;42175;46.930;9.532;2022-10-16T17:23:37;22.30;52.30
56268;DHT22;42175;46.930;9.532;2022-10-16T17:26:12;22.30;52.10
56268;DHT22;42175;46.930;9.532;2022-10-16T17:28:38;22.30;52.30
56268;DHT22;42175;46.930;9.532;2022-10-16T17:31:12;22.30;52.30
56268;DHT22;42175;46.930;9.532;2022-10-16T17:33:38;22.30;52.20
56268;DHT22;42175;46.930;9.532;2022-10-16T17:36:05;22.30;52.10
56268;DHT22;42175;46.930;9.532;2022-10-16T17:38:31;22.40;52.30
56268;DHT22;42175;46.930;9.532;2022-10-16T17:40:56;22.40;52.60
56268;DHT22;42175;46.930;9.532;2022-10-16T17:43:22;22.50;52.60
56268;DHT22;42175;46.930;9.532;2022-10-16T17:45:48;22.50;52.70
56268;DHT22;42175;46.930;9.532;2022-10-16T17:48:14;22.50;52.70
56268;DHT22;42175;46.930;9.532;2022-10-16T17:50:40;22.50;52.90
56268;DHT22;42175;46.930;9.532;2022-10-16T17:53:06;22.50;52.90
56268;DHT22;42175;46.930;9.532;2022-10-16T17:55:37;22.50;52.90
56268;DHT22;42175;46.930;9.532;2022-10-16T17:58:03;22.50;52.80
56268;DHT22;42175;46.930;9.532;2022-10-16T18:00:29;22.60;52.90
56268;DHT22;42175;46.930;9.532;2022-10-16T18:02:55;22.60;53.30
56268;DHT22;42175;46.930;9.532;2022-10-16T18:05:20;22.60;53.20
56268;DHT22;42175;46.930;9.532;2022-10-16T18:07:46;22.70;53.30
56268;DHT22;42175;46.930;9.532;2022-10-16T18:10:12;22.60;53.30